Time;durP1;ratioP1;P1;durP2;ratioP2;P2;SDS_P1;SDS_P2;PMS_P1;PMS_P2;Temp;Humidity;BMP_temperature;BMP_pressure;BME280_temperature;BME280_humidity;BME280_pressure;Samples;Min_cycle;Max_cycle;Signal;HPM_P1;HPM_P2
2023/09/27 00:15:37;;;;;;;12.90;9.13;;;;;;;24.61;49.66;101008.66;41365707;28;20077;-71
2023/09/27 00:35:37;;;;;;;10.82;8.52;;;;;;;24.50;49.39;100987.50;41426032;28;20526;-70
2023/09/27 00:55:38;;;;;;;9.88;8.38;;;;;;;24.52;49.90;101004.09;41408602;28;20048;-72
2023/09/27 01:15:53;;;;;;;10.50;8.50;;;;;;;24.49;49.70;101009.66;41402582;28;20522;-69
2023/09/27 01:35:56;;;;;;;11.80;8.25;;;;;;;24.36;49.71;101004.50;41403965;28;20039;-70
2023/09/27 01:55:56;;;;;;;10.25;8.15;;;;;;;24.39;49.38;101006.91;41404169;28;20034;-70
2023/09/27 02:15:58;;;;;;;9.50;8.32;;;;;;;24.37;49.72;101007.03;41372919;28;20125;-70
2023/09/27 02:36:04;;;;;;;9.73;8.45;;;;;;;24.31;49.67;101004.88;41381018;28;20042;-70
2023/09/27 02:56:05;;;;;;;10.27;8.13;;;;;;;24.32;49.60;101011.88;41374325;28;20046;-70
2023/09/27 03:16:06;;;;;;;11.45;8.60;;;;;;;24.33;49.50;101010.91;41377658;28;20042;-70
2023/09/27 03:36:07;;;;;;;11.13;8.52;;;;;;;24.29;49.36;101009.44;41366749;28;20038;-70
2023/09/27 03:56:07;;;;;;;10.20;8.18;;;;;;;24.23;49.67;101015.25;41377798;28;20038;-68
2023/09/27 04:16:14;;;;;;;9.60;7.65;;;;;;;24.37;49.90;101017.63;41359569;28;20121;-67
2023/09/27 04:36:17;;;;;;;21.35;9.10;;;;;;;24.48;50.45;100986.81;41329612;28;20113;-69
2023/09/27 04:56:18;;;;;;;14.80;8.90;;;;;;;23.94;50.82;100984.88;41393639;28;20088;-71
2023/09/27 05:16:24;;;;;;;33.20;9.02;;;;;;;24.37;50.49;101030.84;41372178;28;20275;-71
2023/09/27 05:36:25;;;;;;;28.63;6.50;;;;;;;22.17;51.25;101064.97;41354137;28;20056;-68
2023/09/27 05:56:25;;;;;;;113.22;31.83;;;;;;;24.34;48.82;101075.25;41341595;28;20550;-69
2023/09/27 06:16:28;;;;;;;79.75;24.65;;;;;;;24.28;49.02;101088.03;41342808;28;20047;-70
2023/09/27 06:36:29;;;;;;;52.70;20.38;;;;;;;24.17;49.07;101066.00;41329966;28;20129;-71
2023/09/27 06:56:30;;;;;;;117.35;21.98;;;;;;;24.50;50.90;101115.44;41329409;28;20435;-70
2023/09/27 07:16:30;;;;;;;74.10;16.65;;;;;;;24.45;51.21;101117.59;41456121;22;20097;-70
2023/09/27 07:36:30;;;;;;;84.78;17.15;;;;;;;24.44;51.18;101122.03;41030047;28;20043;-69
2023/09/27 07:56:36;;;;;;;66.20;13.30;;;;;;;24.15;49.43;101095.25;41058974;28;20054;-68
2023/09/27 08:16:37;;;;;;;119.15;16.67;;;;;;;24.32;51.17;101119.53;41030730;28;20074;-71
2023/09/27 08:36:37;;;;;;;46.42;11.20;;;;;;;24.46;50.40;101130.72;41013121;28;20080;-69
2023/09/27 08:56:38;;;;;;;35.78;11.48;;;;;;;24.60;51.22;101142.00;41041428;28;20051;-70
2023/09/27 09:16:47;;;;;;;24.17;9.88;;;;;;;24.73;50.71;101125.97;41045175;28;20518;-68
2023/09/27 09:36:48;;;;;;;44.83;9.50;;;;;;;24.83;50.86;101123.41;41039795;28;20536;-72
2023/09/27 09:56:50;;;;;;;17.90;7.25;;;;;;;25.16;48.36;101113.66;41064787;28;20058;-71
2023/09/27 10:16:51;;;;;;;16.98;6.00;;;;;;;25.22;46.87;101102.56;41129207;28;20055;-68
2023/09/27 10:36:52;;;;;;;11.80;6.00;;;;;;;25.36;45.61;101080.19;41160621;28;20050;-68
2023/09/27 10:56:53;;;;;;;8.77;5.47;;;;;;;25.54;46.99;101060.09;41163811;28;20129;-72
2023/09/27 11:16:53;;;;;;;49.33;8.57;;;;;;;25.73;44.71;101030.19;41163731;28;20070;-71
2023/09/27 11:37:02;;;;;;;19.67;6.43;;;;;;;25.73;44.22;101001.00;41010601;28;20046;-70
2023/09/27 11:57:03;;;;;;;16.45;5.82;;;;;;;25.98;44.87;100984.75;41083279;28;20165;-69
2023/09/27 12:17:03;;;;;;;13.50;5.90;;;;;;;26.16;44.77;100963.72;41181447;28;20051;-69
2023/09/27 12:37:04;;;;;;;13.10;5.50;;;;;;;26.32;43.40;100945.41;41204049;28;20038;-70
2023/09/27 12:57:05;;;;;;;12.88;4.95;;;;;;;26.53;43.66;100920.53;41212283;28;20047;-68
2023/09/27 13:17:06;;;;;;;12.55;4.90;;;;;;;27.02;39.91;100904.50;41165835;28;20065;-69
2023/09/27 13:37:06;;;;;;;11.27;5.20;;;;;;;27.38;39.10;100870.09;41140925;28;21015;-67
2023/09/27 13:57:07;;;;;;;8.63;4.20;;;;;;;27.27;39.41;100867.59;41155757;28;20102;-67
2023/09/27 14:17:08;;;;;;;10.88;3.78;;;;;;;27.50;38.29;100848.63;41140125;28;20064;-67
2023/09/27 14:37:08;;;;;;;196.02;16.38;;;;;;;27.61;37.18;100838.63;41134083;28;20050;-64
2023/09/27 14:57:08;;;;;;;100.35;8.60;;;;;;;27.56;37.21;100838.25;41119512;28;20054;-63
2023/09/27 15:17:09;;;;;;;15.63;4.28;;;;;;;27.63;35.56;100822.50;41140362;28;20618;-63
2023/09/27 15:37:09;;;;;;;33.40;5.50;;;;;;;26.87;35.98;100843.03;41130571;28;20134;-65
2023/09/27 15:57:09;;;;;;;21.50;5.13;;;;;;;26.20;36.91;100843.00;41108445;28;20470;-70
2023/09/27 16:17:10;;;;;;;14.90;4.80;;;;;;;25.82;36.65;100840.19;41129410;28;20073;-72
2023/09/27 16:37:12;;;;;;;12.38;4.28;;;;;;;25.43;37.00;100850.75;41126640;28;20046;-68
2023/09/27 16:57:13;;;;;;;15.68;4.80;;;;;;;25.07;38.87;100829.97;41115553;28;20070;-64
2023/09/27 17:17:13;;;;;;;11.43;5.10;;;;;;;25.09;38.88;100841.25;41157315;28;20113;-62
2023/09/27 17:37:16;;;;;;;11.45;5.10;;;;;;;24.98;39.91;100841.34;41133553;28;20129;-70
2023/09/27 17:57:19;;;;;;;11.23;5.18;;;;;;;24.80;40.65;100835.00;41131978;28;20039;-64
2023/09/27 18:17:20;;;;;;;12.98;5.43;;;;;;;24.49;40.92;100848.19;41140679;28;20053;-64
2023/09/27 18:37:22;;;;;;;14.48;5.85;;;;;;;25.13;41.59;100856.88;41127711;28;20038;-68
2023/09/27 18:57:24;;;;;;;20.42;8.25;;;;;;;25.25;43.92;100859.31;41167275;28;20046;-65
2023/09/27 19:17:25;;;;;;;18.33;7.90;;;;;;;25.21;44.37;100855.25;41128078;28;20046;-63
2023/09/27 19:37:28;;;;;;;17.20;6.97;;;;;;;25.18;44.00;100852.00;41134502;28;20042;-65
2023/09/27 19:57:29;;;;;;;15.40;6.90;;;;;;;25.14;45.81;100859.41;41113437;28;20494;-64
2023/09/27 20:17:30;;;;;;;12.50;7.05;;;;;;;25.09;46.44;100849.19;41114551;28;20078;-64
2023/09/27 20:37:31;;;;;;;10.88;7.20;;;;;;;25.05;46.75;100849.63;41141716;28;20046;-63
2023/09/27 20:57:32;;;;;;;12.02;6.82;;;;;;;24.98;46.53;100853.75;41169914;28;20046;-63
2023/09/27 21:17:32;;;;;;;10.07;6.38;;;;;;;24.89;47.11;100832.38;41174294;28;20058;-65
2023/09/27 21:37:33;;;;;;;8.57;6.55;;;;;;;24.97;47.28;100844.13;41143866;28;20139;-68
2023/09/27 21:57:33;;;;;;;12.95;6.97;;;;;;;25.07;47.54;100845.84;41158513;28;20042;-62
2023/09/27 22:17:35;;;;;;;13.73;6.97;;;;;;;24.99;47.59;100827.13;41150168;28;21026;-63
2023/09/27 22:37:37;;;;;;;8.77;6.82;;;;;;;24.93;47.91;100825.84;41152707;28;20144;-64
2023/09/27 22:57:38;;;;;;;10.25;7.30;;;;;;;24.86;47.72;100819.41;41131164;28;20044;-63
2023/09/27 23:18:12;;;;;;;11.40;7.20;;;;;;;24.86;47.75;100821.22;41134621;28;20055;-64
2023/09/27 23:58:32;;;;;;;8.13;6.57;;;;;;;24.79;47.70;100810.31;41103332;28;20061;-64
